Time;durP1;ratioP1;P1;durP2;ratioP2;P2;SDS_P1;SDS_P2;PMS_P1;PMS_P2;Temp;Humidity;BMP_temperature;BMP_pressure;BME280_temperature;BME280_humidity;BME280_pressure;Samples;Min_cycle;Max_cycle;Signal;HPM_P1;HPM_P2
2023/02/22 00:05:30;;;;;;;42.28;14.93;;;7.60;99.90;;;;;;12377991;28;20184;-82
2023/02/22 00:11:34;;;;;;;;;;;7.60;99.90;;;;;;12366964;28;20093;-82
2023/02/22 00:17:36;;;;;;;30.70;11.82;;;7.60;99.90;;;;;;12361827;28;20004;-82
2023/02/22 00:23:42;;;;;;;30.05;10.98;;;7.60;99.90;;;;;;12351187;28;20074;-82
2023/02/22 00:29:45;;;;;;;29.50;11.10;;;7.70;99.90;;;;;;12355423;28;20054;-81
2023/02/22 00:35:47;;;;;;;32.65;11.77;;;7.70;99.90;;;;;;12368460;28;20039;-82
2023/02/22 00:41:49;;;;;;;30.48;12.05;;;7.70;99.90;;;;;;12350604;28;20038;-82
2023/02/22 00:47:53;;;;;;;27.30;10.55;;;7.60;99.90;;;;;;12355466;28;20050;-82
2023/02/22 00:53:55;;;;;;;29.92;11.85;;;7.70;99.90;;;;;;12369436;28;20039;-82
2023/02/22 00:59:57;;;;;;;31.17;12.35;;;7.70;99.90;;;;;;12368025;28;20348;-82
2023/02/22 01:05:58;;;;;;;31.98;13.40;;;7.70;99.90;;;;;;12372837;28;20197;-82
2023/02/22 01:12:01;;;;;;;32.13;12.77;;;7.70;99.90;;;;;;12382147;28;20127;-82
2023/02/22 01:18:04;;;;;;;35.17;14.73;;;7.70;99.90;;;;;;12363056;28;20129;-82
2023/02/22 01:24:06;;;;;;;35.97;14.63;;;7.70;99.90;;;;;;12363744;28;20049;-82
2023/02/22 01:30:11;;;;;;;32.03;13.77;;;7.80;99.90;;;;;;12360122;28;20058;-82
2023/02/22 01:36:12;;;;;;;32.17;13.23;;;7.80;99.90;;;;;;12384531;28;20127;-82
2023/02/22 01:42:15;;;;;;;32.83;13.73;;;7.80;99.90;;;;;;12371762;28;20122;-82
2023/02/22 01:48:23;;;;;;;33.35;13.13;;;7.80;99.90;;;;;;12384391;28;20100;-82
2023/02/22 01:54:31;;;;;;;33.30;12.55;;;7.80;99.90;;;;;;12363268;28;20051;-82
2023/02/22 02:00:33;;;;;;;34.50;13.57;;;7.80;99.90;;;;;;12344952;28;20105;-82
2023/02/22 02:06:36;;;;;;;32.30;13.70;;;7.80;99.90;;;;;;12376037;28;20051;-82
2023/02/22 02:12:43;;;;;;;33.92;13.07;;;7.80;99.90;;;;;;12365139;28;20049;-81
2023/02/22 02:18:44;;;;;;;30.58;13.13;;;7.80;99.90;;;;;;12376077;28;20054;-82
2023/02/22 02:24:56;;;;;;;30.25;13.18;;;7.70;99.90;;;;;;12359142;28;20054;-82
2023/02/22 02:31:25;;;;;;;29.35;12.05;;;7.60;99.90;;;;;;12372733;28;20090;-82
2023/02/22 02:37:45;;;;;;;30.00;12.13;;;7.50;99.90;;;;;;12378499;28;20050;-82
2023/02/22 02:43:57;;;;;;;28.42;11.35;;;7.30;99.90;;;;;;12353477;28;20396;-82
2023/02/22 02:50:17;;;;;;;38.13;13.40;;;7.00;99.90;;;;;;12350938;28;20125;-82
2023/02/22 02:56:19;;;;;;;32.42;13.40;;;6.90;99.90;;;;;;12358519;28;20050;-82
2023/02/22 03:02:30;;;;;;;31.95;12.02;;;6.90;99.90;;;;;;12377677;28;20061;-82
2023/02/22 03:08:45;;;;;;;34.08;12.73;;;6.80;99.90;;;;;;12360348;28;20059;-82
2023/02/22 03:15:04;;;;;;;36.55;12.93;;;6.60;99.90;;;;;;12362019;28;20034;-81
2023/02/22 03:21:30;;;;;;;35.42;13.10;;;6.40;99.90;;;;;;12363010;28;20051;-82
2023/02/22 03:27:47;;;;;;;29.67;11.55;;;6.40;99.90;;;;;;12374893;28;20055;-82
2023/02/22 03:33:53;;;;;;;35.92;13.25;;;6.10;99.90;;;;;;12357724;28;20061;-82
2023/02/22 03:39:58;;;;;;;31.35;13.02;;;6.00;99.90;;;;;;12355997;28;20325;-82
2023/02/22 03:46:02;;;;;;;;;;;5.90;99.90;;;;;;12380182;28;20768;-81
2023/02/22 03:52:05;;;;;;;42.60;13.48;;;5.90;99.90;;;;;;12351844;28;19964;-81
2023/02/22 03:58:12;;;;;;;36.67;14.00;;;5.80;99.90;;;;;;12366159;28;20055;-82
2023/02/22 04:04:14;;;;;;;37.35;13.63;;;5.90;99.90;;;;;;12361625;28;20054;-82
2023/02/22 04:10:16;;;;;;;39.08;13.52;;;5.80;99.90;;;;;;12368271;28;20062;-82
2023/02/22 04:16:18;;;;;;;45.60;14.52;;;5.80;99.90;;;;;;12362338;28;20136;-82
2023/02/22 04:22:19;;;;;;;46.50;15.02;;;5.80;99.90;;;;;;12355649;28;20046;-82
2023/02/22 04:28:21;;;;;;;49.25;16.10;;;5.70;99.90;;;;;;12359783;28;20055;-82
2023/02/22 04:34:25;;;;;;;53.60;17.10;;;5.70;99.90;;;;;;12359965;28;20046;-82
2023/02/22 04:40:27;;;;;;;49.35;16.13;;;5.70;99.90;;;;;;12377536;28;20569;-82
2023/02/22 04:46:30;;;;;;;43.38;15.05;;;5.70;99.90;;;;;;12348771;28;20097;-82
2023/02/22 04:52:32;;;;;;;62.47;17.48;;;5.60;99.90;;;;;;12378379;28;20094;-82
2023/02/22 04:58:34;;;;;;;56.95;17.30;;;5.60;99.90;;;;;;12303394;28;20123;-82
2023/02/22 05:04:37;;;;;;;49.15;16.70;;;5.60;99.90;;;;;;12315828;28;20126;-81
2023/02/22 05:10:39;;;;;;;48.13;14.93;;;5.60;99.90;;;;;;12322211;28;20422;-82
2023/02/22 05:16:41;;;;;;;54.08;17.65;;;5.40;99.90;;;;;;12317709;28;20467;-82
2023/02/22 05:22:42;;;;;;;54.80;16.10;;;5.40;99.90;;;;;;12333376;28;20558;-81
2023/02/22 05:28:44;;;;;;;51.00;16.10;;;5.30;99.90;;;;;;12323650;28;20500;-81
2023/02/22 05:34:46;;;;;;;69.13;16.08;;;5.30;99.90;;;;;;12342416;28;20043;-81
2023/02/22 05:40:48;;;;;;;56.70;16.65;;;5.20;99.90;;;;;;12350490;28;20146;-82
2023/02/22 05:46:50;;;;;;;59.00;17.33;;;5.30;99.90;;;;;;12364209;28;20102;-81
2023/02/22 05:52:52;;;;;;;57.50;17.73;;;5.40;99.90;;;;;;12374234;28;20078;-82
2023/02/22 05:58:55;;;;;;;70.90;20.08;;;5.30;99.90;;;;;;12434975;28;20069;-82
2023/02/22 06:04:57;;;;;;;69.53;21.05;;;5.30;99.90;;;;;;12438350;28;20047;-82
2023/02/22 06:10:59;;;;;;;71.07;21.63;;;5.40;99.90;;;;;;12410350;28;20051;-82
2023/02/22 06:17:01;;;;;;;61.25;18.90;;;5.60;99.90;;;;;;12390960;28;20053;-81
2023/02/22 06:23:03;;;;;;;76.50;22.23;;;5.50;99.90;;;;;;12389073;28;20042;-81
2023/02/22 06:29:05;;;;;;;63.10;20.52;;;5.40;99.90;;;;;;12362172;28;20054;-82
2023/02/22 06:35:07;;;;;;;73.95;21.00;;;5.50;99.90;;;;;;12368675;28;20556;-81
2023/02/22 06:41:09;;;;;;;59.00;19.20;;;5.70;99.90;;;;;;12364842;28;20042;-81
2023/02/22 06:47:11;;;;;;;56.92;17.80;;;5.50;99.90;;;;;;12360140;28;20058;-81
2023/02/22 06:53:13;;;;;;;51.90;17.38;;;5.30;99.90;;;;;;12352702;28;20075;-81
2023/02/22 06:59:15;;;;;;;45.88;17.02;;;5.30;99.90;;;;;;12366725;28;20054;-82
2023/02/22 07:05:19;;;;;;;49.55;17.42;;;5.40;99.90;;;;;;12373337;28;20051;-82
2023/02/22 07:11:21;;;;;;;48.75;17.67;;;5.50;99.90;;;;;;12369114;28;20046;-82
2023/02/22 07:17:23;;;;;;;43.40;16.98;;;5.60;99.90;;;;;;12363648;28;20161;-82
2023/02/22 07:23:26;;;;;;;46.42;16.40;;;5.80;99.90;;;;;;12368987;28;20050;-82
2023/02/22 07:29:27;;;;;;;45.03;17.45;;;5.90;99.90;;;;;;12356883;28;20046;-82
2023/02/22 07:35:37;;;;;;;59.17;19.77;;;6.10;99.90;;;;;;12376768;28;20058;-82
2023/02/22 07:41:39;;;;;;;35.15;12.95;;;6.40;99.90;;;;;;12385332;28;20508;-82
2023/02/22 07:47:41;;;;;;;41.42;16.17;;;6.60;99.90;;;;;;12377899;28;20132;-82
2023/02/22 07:53:44;;;;;;;32.45;15.35;;;6.80;99.90;;;;;;12393433;28;20061;-82
2023/02/22 07:59:47;;;;;;;44.35;19.13;;;6.90;99.90;;;;;;12372445;28;20387;-82
2023/02/22 08:05:53;;;;;;;53.03;20.23;;;7.20;99.90;;;;;;12371072;28;20054;-82
2023/02/22 08:11:54;;;;;;;30.40;15.00;;;7.60;99.90;;;;;;12369224;28;20192;-82
2023/02/22 08:17:58;;;;;;;26.58;12.25;;;7.80;99.90;;;;;;12374848;28;20506;-82
2023/02/22 08:24:00;;;;;;;27.27;12.85;;;7.80;99.90;;;;;;12379695;28;20522;-82
2023/02/22 08:30:03;;;;;;;41.45;18.52;;;8.00;99.90;;;;;;12363229;28;20047;-82
2023/02/22 08:36:05;;;;;;;44.75;19.88;;;8.20;99.90;;;;;;12356832;28;20126;-82
2023/02/22 08:42:10;;;;;;;36.78;17.98;;;8.60;99.90;;;;;;12353844;28;20043;-82
2023/02/22 08:48:13;;;;;;;42.10;18.75;;;8.90;99.90;;;;;;12341739;28;20174;-82
2023/02/22 08:54:16;;;;;;;31.73;17.33;;;9.20;99.90;;;;;;12356348;28;20728;-82
2023/02/22 09:00:23;;;;;;;35.30;17.15;;;9.40;99.90;;;;;;12378667;28;20061;-82
2023/02/22 09:06:25;;;;;;;25.23;14.35;;;9.50;99.90;;;;;;12389712;28;20089;-82
2023/02/22 09:12:27;;;;;;;30.55;16.70;;;9.80;99.90;;;;;;12368006;28;20078;-82
2023/02/22 09:18:29;;;;;;;28.08;15.45;;;9.90;99.90;;;;;;12371590;28;20047;-82
2023/02/22 09:24:44;;;;;;;26.35;15.63;;;10.00;99.90;;;;;;12350477;28;20406;-82
2023/02/22 09:30:46;;;;;;;27.95;15.57;;;10.20;99.90;;;;;;12367029;28;20046;-82
2023/02/22 09:36:49;;;;;;;27.63;15.23;;;10.30;99.90;;;;;;12370913;28;20514;-83
2023/02/22 09:43:22;;;;;;;25.95;14.80;;;10.60;99.90;;;;;;12369198;28;20046;-82
2023/02/22 09:49:33;;;;;;;31.40;16.05;;;10.70;99.90;;;;;;12384915;28;20082;-83
2023/02/22 09:55:52;;;;;;;25.63;15.32;;;10.70;99.90;;;;;;12380579;28;20082;-83
2023/02/22 10:02:00;;;;;;;28.08;15.45;;;10.80;99.90;;;;;;12367239;28;20190;-83
2023/02/22 10:08:11;;;;;;;23.63;14.60;;;10.90;99.90;;;;;;12408298;28;20072;-82
2023/02/22 10:14:19;;;;;;;24.27;14.32;;;10.90;99.90;;;;;;12377959;28;20581;-82
2023/02/22 10:20:42;;;;;;;24.13;13.63;;;10.90;99.90;;;;;;12401871;28;20046;-83
2023/02/22 10:26:45;;;;;;;24.40;14.05;;;10.90;99.90;;;;;;12382403;28;20051;-83
2023/02/22 10:33:16;;;;;;;23.57;14.43;;;11.00;99.90;;;;;;12386067;28;20054;-83
2023/02/22 10:39:32;;;;;;;26.23;13.85;;;11.20;99.90;;;;;;12361914;28;20129;-83
2023/02/22 10:45:35;;;;;;;22.42;13.20;;;11.40;99.90;;;;;;12426192;28;20513;-83
2023/02/22 10:51:38;;;;;;;22.50;12.93;;;11.60;99.90;;;;;;12401398;28;20045;-83
2023/02/22 10:57:41;;;;;;;21.83;13.50;;;11.90;99.90;;;;;;12424657;28;20080;-83
2023/02/22 11:03:44;;;;;;;21.92;13.18;;;11.80;99.90;;;;;;12370243;28;20043;-83
2023/02/22 11:10:01;;;;;;;20.83;13.27;;;11.90;99.90;;;;;;12335976;28;20078;-83
2023/02/22 11:16:30;;;;;;;22.42;13.40;;;11.90;99.90;;;;;;12359077;28;20064;-83
2023/02/22 11:22:40;;;;;;;22.52;13.02;;;11.70;99.90;;;;;;12367917;28;20049;-83
2023/02/22 11:28:49;;;;;;;20.70;12.95;;;11.70;99.90;;;;;;12370655;28;20494;-83
2023/02/22 11:34:52;;;;;;;22.98;13.18;;;11.80;99.90;;;;;;12427649;28;20046;-83
2023/02/22 11:41:29;;;;;;;17.73;11.77;;;11.80;99.90;;;;;;12405525;28;20041;-83
2023/02/22 11:47:31;;;;;;;26.35;12.98;;;11.90;99.90;;;;;;12396542;28;20387;-83
2023/02/22 11:54:00;;;;;;;18.08;11.25;;;12.10;99.90;;;;;;12385566;28;20046;-83
2023/02/22 12:00:32;;;;;;;15.52;10.40;;;12.30;99.90;;;;;;12400915;28;20128;-84
2023/02/22 12:06:43;;;;;;;15.70;10.27;;;12.60;99.90;;;;;;12367313;28;20073;-83
2023/02/22 12:12:53;;;;;;;17.00;10.90;;;12.90;99.90;;;;;;12372188;28;20471;-83
2023/02/22 12:19:10;;;;;;;18.67;9.93;;;12.90;99.90;;;;;;12393034;28;20043;-83
2023/02/22 12:25:20;;;;;;;14.75;9.63;;;13.30;99.90;;;;;;12419274;28;20153;-83
2023/02/22 12:31:48;;;;;;;15.25;9.73;;;13.20;99.90;;;;;;12408213;28;20054;-83
2023/02/22 12:38:16;;;;;;;16.15;9.20;;;13.10;99.90;;;;;;12381841;28;20513;-83
2023/02/22 12:44:24;;;;;;;15.52;8.82;;;13.20;99.90;;;;;;12392847;28;20092;-83
2023/02/22 12:50:33;;;;;;;13.85;8.85;;;13.00;99.90;;;;;;12399651;28;20083;-83
2023/02/22 12:56:49;;;;;;;15.50;8.18;;;13.10;99.90;;;;;;12402792;28;20188;-83
2023/02/22 13:03:03;;;;;;;11.93;7.28;;;13.30;99.90;;;;;;12403688;28;20103;-83
2023/02/22 13:09:34;;;;;;;11.48;7.45;;;13.20;99.90;;;;;;12432047;28;20057;-83
2023/02/22 13:15:43;;;;;;;12.40;7.95;;;13.40;99.90;;;;;;12398278;28;20521;-83
2023/02/22 13:21:57;;;;;;;12.00;6.63;;;13.30;99.90;;;;;;12415398;28;20053;-83
2023/02/22 13:28:29;;;;;;;10.65;7.53;;;13.30;99.90;;;;;;12402356;28;20104;-83
2023/02/22 13:35:01;;;;;;;12.07;7.60;;;13.20;99.90;;;;;;12424201;28;20074;-83
2023/02/22 13:41:31;;;;;;;12.95;7.70;;;13.00;99.90;;;;;;12421008;28;20425;-83
2023/02/22 13:48:06;;;;;;;9.60;6.63;;;13.00;99.90;;;;;;12428030;28;20177;-83
2023/02/22 13:54:46;;;;;;;13.25;8.02;;;13.10;99.90;;;;;;12413885;28;20042;-83
2023/02/22 14:00:49;;;;;;;13.32;7.78;;;13.00;99.90;;;;;;12369709;28;20049;-83
2023/02/22 14:07:12;;;;;;;16.53;7.70;;;12.90;99.90;;;;;;12408288;28;20413;-83
2023/02/22 14:13:21;;;;;;;12.35;7.50;;;12.80;99.90;;;;;;12363287;28;20050;-84
2023/02/22 14:19:23;;;;;;;11.23;7.55;;;12.80;99.90;;;;;;12416408;28;20442;-83
2023/02/22 14:25:43;;;;;;;10.65;7.32;;;12.80;99.90;;;;;;12408835;28;20534;-83
2023/02/22 14:31:45;;;;;;;10.90;6.68;;;12.70;99.90;;;;;;12417789;28;20487;-83
2023/02/22 14:37:54;;;;;;;11.48;7.43;;;12.60;99.90;;;;;;12413654;28;20042;-83
2023/02/22 14:43:58;;;;;;;13.70;8.05;;;12.60;99.90;;;;;;12417006;28;20042;-83
2023/02/22 14:50:11;;;;;;;16.40;8.30;;;12.60;99.90;;;;;;12425496;28;20054;-83
2023/02/22 14:56:25;;;;;;;11.50;7.72;;;12.40;99.90;;;;;;12427880;28;20081;-83
2023/02/22 15:02:37;;;;;;;11.70;7.45;;;12.30;99.90;;;;;;12402837;28;20694;-82
2023/02/22 15:08:41;;;;;;;12.05;7.32;;;12.30;99.90;;;;;;12405808;28;20149;-82
2023/02/22 15:14:46;;;;;;;11.43;7.50;;;12.20;99.90;;;;;;12404263;28;20502;-82
2023/02/22 15:20:54;;;;;;;10.45;6.70;;;12.10;99.90;;;;;;12419545;28;20454;-82
2023/02/22 15:27:03;;;;;;;13.20;7.95;;;12.10;99.90;;;;;;12401503;28;20042;-82
2023/02/22 15:33:16;;;;;;;11.02;7.60;;;12.00;99.90;;;;;;12409433;28;20054;-83
2023/02/22 15:39:28;;;;;;;11.95;7.60;;;12.00;99.90;;;;;;12432920;28;20133;-83
2023/02/22 15:45:33;;;;;;;11.15;7.72;;;11.90;99.90;;;;;;12412410;28;20049;-82
2023/02/22 15:51:39;;;;;;;11.77;6.72;;;11.80;99.90;;;;;;12412698;28;20045;-83
2023/02/22 15:57:42;;;;;;;11.93;7.20;;;11.70;99.90;;;;;;12401666;28;20410;-83
2023/02/22 16:03:58;;;;;;;11.13;7.30;;;11.60;99.90;;;;;;12395465;28;20042;-83
2023/02/22 16:10:07;;;;;;;11.25;6.35;;;11.50;99.90;;;;;;12389899;28;20402;-82
2023/02/22 16:16:20;;;;;;;12.13;6.28;;;11.30;99.90;;;;;;12417132;28;20061;-83
2023/02/22 16:22:34;;;;;;;9.68;6.07;;;11.20;99.90;;;;;;12410510;28;20042;-83
2023/02/22 16:28:50;;;;;;;10.13;6.50;;;11.10;99.90;;;;;;12428388;28;20107;-83
2023/02/22 16:34:52;;;;;;;9.10;5.97;;;11.00;99.90;;;;;;12398285;28;20418;-83
2023/02/22 16:40:57;;;;;;;10.07;6.88;;;10.80;99.90;;;;;;12406372;28;20042;-83
2023/02/22 16:46:59;;;;;;;10.10;6.05;;;10.60;99.90;;;;;;12407248;28;20058;-83
2023/02/22 16:53:01;;;;;;;10.00;5.70;;;10.40;99.90;;;;;;12406520;28;20061;-83
2023/02/22 16:59:12;;;;;;;8.30;5.30;;;10.20;99.90;;;;;;12398729;28;20050;-83
2023/02/22 17:05:15;;;;;;;11.23;5.38;;;10.00;99.90;;;;;;12411360;28;20042;-83
2023/02/22 17:11:17;;;;;;;10.65;5.07;;;10.00;99.90;;;;;;12412410;28;20046;-83
2023/02/22 17:17:22;;;;;;;8.05;5.35;;;9.80;99.90;;;;;;12411620;28;20136;-83
2023/02/22 17:23:26;;;;;;;10.68;5.10;;;9.60;99.90;;;;;;12421832;28;20083;-83
2023/02/22 17:29:28;;;;;;;10.00;5.50;;;9.60;99.90;;;;;;12414055;28;20247;-83
2023/02/22 17:35:34;;;;;;;11.95;5.75;;;9.60;99.90;;;;;;12372858;28;20045;-83
2023/02/22 17:41:37;;;;;;;11.75;6.22;;;9.50;99.90;;;;;;12358108;28;20043;-83
2023/02/22 17:47:42;;;;;;;9.50;6.13;;;9.50;99.90;;;;;;12341361;28;20125;-83
2023/02/22 17:53:44;;;;;;;13.80;6.82;;;9.50;99.90;;;;;;12363072;28;20069;-83
2023/02/22 17:59:46;;;;;;;12.15;6.55;;;9.50;99.90;;;;;;12393440;28;20208;-83
2023/02/22 18:05:49;;;;;;;9.98;5.78;;;9.50;99.90;;;;;;12385108;28;20085;-83
2023/02/22 18:11:51;;;;;;;11.63;7.10;;;9.50;99.90;;;;;;12371399;28;20331;-83
2023/02/22 18:17:54;;;;;;;11.48;6.68;;;9.50;99.90;;;;;;12374229;28;20132;-83
2023/02/22 18:23:56;;;;;;;9.10;5.95;;;9.60;99.90;;;;;;12387478;28;20514;-83
2023/02/22 18:29:58;;;;;;;11.02;5.72;;;9.60;99.90;;;;;;12380080;28;20054;-82
2023/02/22 18:36:00;;;;;;;12.02;5.97;;;9.60;99.90;;;;;;12427595;28;20081;-83
2023/02/22 18:42:02;;;;;;;10.70;5.90;;;9.70;99.90;;;;;;12407830;28;20046;-83
2023/02/22 18:48:04;;;;;;;8.40;5.53;;;9.60;99.90;;;;;;12411155;28;20057;-83
2023/02/22 18:54:06;;;;;;;8.13;5.63;;;9.60;99.90;;;;;;12369225;28;20047;-83
2023/02/22 19:00:12;;;;;;;12.07;6.47;;;9.60;99.90;;;;;;12380372;28;20050;-83
2023/02/22 19:06:15;;;;;;;8.65;6.00;;;9.60;99.90;;;;;;12374882;28;20526;-82
2023/02/22 19:12:18;;;;;;;11.25;5.75;;;9.70;99.90;;;;;;12362033;28;20059;-82
2023/02/22 19:18:20;;;;;;;9.32;5.40;;;9.60;99.90;;;;;;12375684;28;20562;-82
2023/02/22 19:24:22;;;;;;;8.57;4.88;;;9.60;99.90;;;;;;12371854;28;20047;-82
2023/02/22 19:30:24;;;;;;;8.02;5.30;;;9.70;99.90;;;;;;12361874;28;20425;-83
2023/02/22 19:36:26;;;;;;;10.25;5.53;;;9.80;99.90;;;;;;12369856;28;20050;-83
2023/02/22 19:42:28;;;;;;;8.80;4.95;;;9.80;99.90;;;;;;12368356;28;20472;-83
2023/02/22 19:48:31;;;;;;;8.35;4.95;;;9.90;99.90;;;;;;12380342;28;20129;-83
2023/02/22 19:54:33;;;;;;;9.38;5.43;;;9.90;99.90;;;;;;12377374;28;20145;-83
2023/02/22 20:00:35;;;;;;;10.02;6.00;;;9.90;99.90;;;;;;12373830;28;20053;-82
2023/02/22 20:06:40;;;;;;;8.43;5.60;;;9.90;99.90;;;;;;12369172;28;20061;-82
2023/02/22 20:12:42;;;;;;;9.45;5.90;;;9.80;99.90;;;;;;12356597;28;20117;-82
2023/02/22 20:18:45;;;;;;;9.27;5.80;;;9.70;99.90;;;;;;12383223;28;20042;-82
2023/02/22 20:24:48;;;;;;;8.83;5.60;;;9.60;99.90;;;;;;12368165;28;20050;-83
2023/02/22 20:30:52;;;;;;;7.70;5.45;;;9.60;99.90;;;;;;12385517;28;20411;-82
2023/02/22 20:36:54;;;;;;;10.10;6.30;;;9.60;99.90;;;;;;12374995;28;20132;-82
2023/02/22 20:42:56;;;;;;;12.40;6.18;;;9.60;99.90;;;;;;12381230;28;20069;-82
2023/02/22 20:48:59;;;;;;;11.45;6.43;;;9.60;99.90;;;;;;12367305;28;20065;-82
2023/02/22 20:55:03;;;;;;;9.23;6.10;;;9.60;99.90;;;;;;12373574;28;20104;-82
2023/02/22 21:01:06;;;;;;;13.43;6.55;;;9.70;99.90;;;;;;12384219;28;20046;-82
2023/02/22 21:07:08;;;;;;;11.82;6.63;;;9.60;99.90;;;;;;12360040;28;20055;-82
2023/02/22 21:13:10;;;;;;;12.25;6.43;;;9.60;99.90;;;;;;12368749;28;20095;-82
2023/02/22 21:19:24;;;;;;;12.95;7.15;;;9.50;99.90;;;;;;12377925;28;20086;-82
2023/02/22 21:25:29;;;;;;;13.57;7.50;;;9.40;99.90;;;;;;12355544;28;20418;-82
2023/02/22 21:31:32;;;;;;;11.43;7.70;;;9.50;99.90;;;;;;12370225;28;20054;-82
2023/02/22 21:37:35;;;;;;;14.07;8.30;;;9.50;99.90;;;;;;12376569;28;20046;-83
2023/02/22 21:43:37;;;;;;;13.90;8.85;;;9.50;99.90;;;;;;12394804;28;20129;-83
2023/02/22 21:49:38;;;;;;;13.85;8.55;;;9.50;99.90;;;;;;12367692;28;20061;-82
2023/02/22 21:55:40;;;;;;;13.18;8.45;;;9.30;99.90;;;;;;12382751;28;20054;-83
2023/02/22 22:01:49;;;;;;;15.60;9.32;;;9.20;99.90;;;;;;12382473;28;20045;-83
2023/02/22 22:07:51;;;;;;;16.75;10.30;;;9.10;99.90;;;;;;12380364;28;20510;-82
2023/02/22 22:13:57;;;;;;;17.00;9.98;;;9.00;99.90;;;;;;12369275;28;20050;-83
2023/02/22 22:19:59;;;;;;;17.73;10.75;;;9.00;99.90;;;;;;12377341;28;20462;-82
2023/02/22 22:26:01;;;;;;;18.10;11.73;;;8.90;99.90;;;;;;12378868;28;20466;-83
2023/02/22 22:32:04;;;;;;;20.83;12.52;;;8.90;99.90;;;;;;12386886;28;20057;-83
2023/02/22 22:38:08;;;;;;;21.80;11.90;;;8.80;99.90;;;;;;12375434;28;20054;-83
2023/02/22 22:44:15;;;;;;;26.02;13.82;;;8.80;99.90;;;;;;12383945;28;20038;-82
2023/02/22 22:50:18;;;;;;;22.90;13.65;;;8.80;99.90;;;;;;12390242;28;20107;-83
2023/02/22 22:56:25;;;;;;;26.60;14.30;;;8.80;99.90;;;;;;12368578;28;20105;-82
2023/02/22 23:02:28;;;;;;;22.25;14.32;;;8.80;99.90;;;;;;12361825;28;20054;-83
2023/02/22 23:08:41;;;;;;;22.95;14.73;;;8.70;99.90;;;;;;12376167;28;20136;-83
2023/02/22 23:14:44;;;;;;;24.95;15.13;;;8.60;99.90;;;;;;12354513;28;20129;-83
2023/02/22 23:20:53;;;;;;;24.65;15.10;;;8.60;99.90;;;;;;12368487;28;21312;-82
2023/02/22 23:26:58;;;;;;;24.83;14.95;;;8.50;99.90;;;;;;12375572;28;20055;-82
2023/02/22 23:33:01;;;;;;;26.95;17.00;;;8.50;99.90;;;;;;12370689;28;20129;-82
2023/02/22 23:39:05;;;;;;;28.30;16.77;;;8.40;99.90;;;;;;12378555;28;20038;-83
2023/02/22 23:45:13;;;;;;;26.50;17.23;;;8.40;99.90;;;;;;12397998;28;20154;-82
2023/02/22 23:51:18;;;;;;;29.67;18.70;;;8.30;99.90;;;;;;12424190;28;20057;-83
2023/02/22 23:57:21;;;;;;;29.75;17.77;;;8.20;99.90;;;;;;12401460;28;20057;-82
